createdAt,value
2022-10-01T00:01:19.789Z,59.45
2022-10-01T00:03:47.967Z,59.39
2022-10-01T00:06:18.622Z,59.42
2022-10-01T00:08:49.242Z,59.36
2022-10-01T00:11:20.894Z,59.35
2022-10-01T00:13:48.682Z,59.39
2022-10-01T00:16:19.271Z,59.37
2022-10-01T00:18:48.187Z,59.33
2022-10-01T00:21:21.278Z,59.37
2022-10-01T00:23:53.195Z,59.44
2022-10-01T00:26:22.949Z,59.35
2022-10-01T00:28:55.656Z,59.39
2022-10-01T00:31:23.563Z,59.36
2022-10-01T00:33:54.908Z,59.48
2022-10-01T00:36:22.341Z,59.39
2022-10-01T00:38:49.625Z,59.35
2022-10-01T00:41:18.349Z,59.37
2022-10-01T00:43:49.868Z,59.28
2022-10-01T00:46:21.197Z,59.48
2022-10-01T00:49:01.101Z,59.34
2022-10-01T00:51:38.506Z,59.44
2022-10-01T00:54:10.336Z,59.48
2022-10-01T00:56:38.244Z,59.34
2022-10-01T00:59:07.120Z,59.38
2022-10-01T01:01:37.479Z,59.51
2022-10-01T01:04:16.617Z,59.23
2022-10-01T01:06:48.350Z,59.42
2022-10-01T01:09:15.650Z,59.36
2022-10-01T01:12:13.201Z,59.41
2022-10-01T01:15:14.255Z,59.41
2022-10-01T01:18:06.238Z,59.48
2022-10-01T01:20:55.430Z,59.44
2022-10-01T01:23:52.780Z,59.46
2022-10-01T01:26:35.148Z,59.48
2022-10-01T01:29:09.311Z,59.54
2022-10-01T01:31:46.294Z,59.60
2022-10-01T01:34:20.081Z,59.61
2022-10-01T01:36:58.575Z,59.58
2022-10-01T01:39:29.836Z,59.53
2022-10-01T01:42:01.144Z,59.53
2022-10-01T01:44:34.105Z,59.59
2022-10-01T01:47:04.043Z,59.47
2022-10-01T01:49:31.989Z,59.54
2022-10-01T01:52:13.414Z,59.63
2022-10-01T01:54:45.238Z,59.81
2022-10-01T01:57:15.306Z,59.57
2022-10-01T01:59:43.632Z,59.59
2022-10-01T02:02:19.240Z,59.47
2022-10-01T02:04:55.229Z,59.59
2022-10-01T02:08:00.060Z,59.58
2022-10-01T02:10:51.855Z,59.52
2022-10-01T02:13:25.254Z,59.72
2022-10-01T02:16:21.079Z,59.63
2022-10-01T02:19:00.670Z,59.52
2022-10-01T02:21:33.697Z,59.72
2022-10-01T02:24:08.107Z,59.63
2022-10-01T02:26:38.143Z,59.59
2022-10-01T02:29:12.609Z,59.57
2022-10-01T02:31:41.476Z,59.42
2022-10-01T02:34:12.603Z,59.50
2022-10-01T02:36:42.622Z,59.49
2022-10-01T02:39:11.495Z,59.40
2022-10-01T02:41:38.968Z,59.47
2022-10-01T02:44:08.585Z,59.40
2022-10-01T02:47:00.579Z,59.46
2022-10-01T02:49:30.884Z,59.39
2022-10-01T02:52:07.295Z,59.41
2022-10-01T02:54:42.847Z,59.39
2022-10-01T02:57:27.581Z,59.38
2022-10-01T02:59:59.169Z,59.44
2022-10-01T03:02:28.761Z,59.34
2022-10-01T03:04:59.147Z,59.41
2022-10-01T03:07:28.206Z,59.36
2022-10-01T03:09:56.842Z,59.42
2022-10-01T03:12:24.259Z,59.36
2022-10-01T03:14:52.049Z,59.36
2022-10-01T03:17:19.530Z,59.32
2022-10-01T03:19:46.865Z,59.26
2022-10-01T03:22:18.238Z,59.29
2022-10-01T03:24:45.539Z,59.27
2022-10-01T03:27:12.808Z,59.29
2022-10-01T03:29:40.148Z,59.35
2022-10-01T03:32:07.409Z,59.21
2022-10-01T03:34:34.795Z,59.24
2022-10-01T03:37:02.121Z,59.30
2022-10-01T03:39:29.373Z,59.29
2022-10-01T03:41:56.554Z,59.21
2022-10-01T03:44:23.795Z,59.25
2022-10-01T03:46:51.055Z,59.23
2022-10-01T03:49:18.256Z,59.22
2022-10-01T03:51:45.583Z,59.16
2022-10-01T03:54:12.820Z,59.08
2022-10-01T03:56:42.632Z,59.15
2022-10-01T03:59:11.165Z,59.05
2022-10-01T04:01:39.551Z,59.09
2022-10-01T04:04:07.258Z,59.06
2022-10-01T04:06:34.633Z,59.06
2022-10-01T04:09:01.968Z,59.11
2022-10-01T04:11:29.215Z,58.98
2022-10-01T04:13:57.975Z,59.08
2022-10-01T04:16:25.539Z,58.93
2022-10-01T04:18:53.151Z,58.87
2022-10-01T04:21:20.864Z,58.95
2022-10-01T04:23:49.871Z,58.91
2022-10-01T04:26:19.055Z,58.68
2022-10-01T04:28:46.963Z,58.88
2022-10-01T04:31:26.647Z,58.82
2022-10-01T04:33:57.290Z,58.74
2022-10-01T04:36:25.626Z,58.76
2022-10-01T04:38:57.972Z,58.79
2022-10-01T04:41:30.242Z,58.57
2022-10-01T04:43:59.932Z,58.79
2022-10-01T04:48:55.786Z,58.67
2022-10-01T04:51:23.086Z,58.73
2022-10-01T04:56:17.360Z,58.64
2022-10-01T04:58:44.763Z,58.64
2022-10-01T05:03:39.139Z,58.59
2022-10-01T05:08:33.371Z,58.65
2022-10-01T05:11:00.678Z,58.49
2022-10-01T05:13:30.365Z,58.53
2022-10-01T05:15:58.552Z,58.48
2022-10-01T05:18:25.984Z,58.48
2022-10-01T05:20:53.290Z,58.45
2022-10-01T05:23:20.561Z,58.42
2022-10-01T05:25:47.835Z,58.39
2022-10-01T05:28:19.836Z,58.39
2022-10-01T05:30:50.986Z,58.36
2022-10-01T05:33:18.477Z,58.35
2022-10-01T05:35:45.842Z,58.36
2022-10-01T05:38:14.042Z,58.32
2022-10-01T05:40:45.334Z,58.35
2022-10-01T05:43:13.012Z,58.26
2022-10-01T05:45:41.088Z,58.16
2022-10-01T05:48:09.305Z,58.14
2022-10-01T05:50:42.460Z,58.18
2022-10-01T05:53:14.036Z,58.25
2022-10-01T05:55:41.290Z,58.12
2022-10-01T05:58:11.081Z,58.13
2022-10-01T06:00:40.072Z,58.07
2022-10-01T06:03:07.970Z,58.01
2022-10-01T06:05:36.097Z,57.76
2022-10-01T06:08:07.284Z,57.38
2022-10-01T06:10:36.827Z,57.14
2022-10-01T06:13:05.704Z,57.08
2022-10-01T06:15:37.814Z,56.95
2022-10-01T06:18:09.427Z,56.82
2022-10-01T06:20:37.090Z,56.81
2022-10-01T06:23:07.352Z,56.82
2022-10-01T06:25:36.540Z,56.70
2022-10-01T06:28:05.962Z,56.90
2022-10-01T06:30:36.310Z,56.74
2022-10-01T06:33:09.651Z,56.72
2022-10-01T06:35:41.943Z,56.68
2022-10-01T06:38:10.556Z,56.71
2022-10-01T06:40:38.092Z,56.67
2022-10-01T06:43:08.162Z,56.68
2022-10-01T06:45:43.619Z,56.70
2022-10-01T06:48:14.648Z,56.71
2022-10-01T06:50:45.753Z,56.76
2022-10-01T06:53:14.562Z,56.79
2022-10-01T06:55:42.270Z,56.72
2022-10-01T06:58:26.285Z,56.77
2022-10-01T07:00:59.402Z,56.75
2022-10-01T07:03:27.891Z,56.78
2022-10-01T07:06:02.251Z,56.78
2022-10-01T07:08:29.748Z,56.80
2022-10-01T07:11:02.482Z,56.75
2022-10-01T07:13:30.145Z,56.84
2022-10-01T07:15:57.433Z,56.80
2022-10-01T07:18:24.794Z,56.81
2022-10-01T07:20:52.168Z,56.79
2022-10-01T07:23:19.494Z,56.85
2022-10-01T07:25:46.840Z,56.84
2022-10-01T07:28:18.472Z,56.79
2022-10-01T07:30:56.646Z,56.78
2022-10-01T07:33:23.925Z,56.77
2022-10-01T07:35:51.257Z,56.86
2022-10-01T07:38:18.588Z,56.92
2022-10-01T07:40:51.732Z,56.98
2022-10-01T07:46:05.100Z,56.91
2022-10-01T07:48:32.510Z,57.06
2022-10-01T07:50:59.775Z,57.19
2022-10-01T07:53:27.544Z,57.26
2022-10-01T07:55:54.836Z,57.19
2022-10-01T07:58:24.078Z,57.20
2022-10-01T08:00:56.036Z,57.25
2022-10-01T08:03:23.743Z,57.27
2022-10-01T08:05:53.012Z,57.27
2022-10-01T08:08:20.302Z,57.27
2022-10-01T08:10:50.080Z,57.20
2022-10-01T08:14:35.118Z,57.17
2022-10-01T08:17:02.473Z,57.47
2022-10-01T08:19:30.102Z,57.25
2022-10-01T08:21:57.400Z,56.63
2022-10-01T08:24:24.925Z,56.84
2022-10-01T08:26:55.959Z,57.37
2022-10-01T08:29:23.365Z,57.41
2022-10-01T08:31:50.763Z,57.46
2022-10-01T08:34:18.179Z,57.56
2022-10-01T08:36:45.854Z,57.59
2022-10-01T08:39:14.799Z,57.61
2022-10-01T08:42:08.135Z,57.49
2022-10-01T08:44:43.110Z,57.50
2022-10-01T08:47:26.355Z,57.32
2022-10-01T08:50:00.484Z,57.46
2022-10-01T08:52:40.914Z,57.45
2022-10-01T08:55:16.874Z,57.64
2022-10-01T08:57:51.260Z,57.67
2022-10-01T09:00:20.368Z,57.61
2022-10-01T09:02:48.259Z,57.94
2022-10-01T09:05:34.044Z,58.07
2022-10-01T09:08:24.145Z,57.98
2022-10-01T09:11:04.340Z,57.85
2022-10-01T09:13:40.242Z,57.93
2022-10-01T09:16:25.466Z,57.72
2022-10-01T09:19:01.660Z,57.70
2022-10-01T09:21:40.668Z,57.40
2022-10-01T09:24:33.742Z,57.44
2022-10-01T09:27:01.872Z,57.39
2022-10-01T09:29:41.421Z,57.41
2022-10-01T09:32:16.014Z,57.52
2022-10-01T09:34:44.791Z,57.39
2022-10-01T09:38:01.200Z,57.68
2022-10-01T09:40:55.668Z,57.70
2022-10-01T09:43:26.395Z,57.63
2022-10-01T09:45:55.024Z,57.70
2022-10-01T09:48:28.498Z,57.84
2022-10-01T09:51:07.027Z,58.04
2022-10-01T09:53:41.218Z,57.80
2022-10-01T09:56:15.496Z,57.82
2022-10-01T09:58:47.926Z,57.70
2022-10-01T10:01:28.626Z,57.97
2022-10-01T10:03:57.853Z,57.83
2022-10-01T10:06:30.582Z,57.73
2022-10-01T10:09:01.217Z,57.68
2022-10-01T10:11:31.562Z,57.68
2022-10-01T10:14:02.465Z,57.55
2022-10-01T10:16:34.371Z,57.33
2022-10-01T10:19:09.678Z,57.20
2022-10-01T10:21:37.382Z,57.21
2022-10-01T10:24:22.253Z,57.10
2022-10-01T10:26:55.828Z,57.05
2022-10-01T10:29:32.142Z,57.09
2022-10-01T10:32:04.197Z,57.07
2022-10-01T10:34:38.349Z,57.14
2022-10-01T10:37:14.666Z,57.05
2022-10-01T10:39:47.531Z,56.95
2022-10-01T10:42:15.887Z,56.87
2022-10-01T10:44:46.947Z,57.20
2022-10-01T10:47:16.685Z,57.05
2022-10-01T10:49:45.838Z,57.16
2022-10-01T10:52:30.152Z,57.18
2022-10-01T10:54:59.431Z,56.75
2022-10-01T10:57:31.705Z,56.00
2022-10-01T11:00:01.570Z,55.88
2022-10-01T11:02:31.462Z,55.96
2022-10-01T11:05:03.901Z,56.16
2022-10-01T11:07:31.978Z,56.25
2022-10-01T11:10:01.995Z,56.12
2022-10-01T11:12:56.697Z,56.35
2022-10-01T11:15:30.045Z,56.43
2022-10-01T11:18:16.029Z,56.73
2022-10-01T11:21:12.847Z,56.90
2022-10-01T11:24:01.505Z,56.59
2022-10-01T11:26:40.900Z,56.72
2022-10-01T11:32:19.595Z,56.34
2022-10-01T11:35:09.966Z,56.52
2022-10-01T11:38:00.544Z,56.96
2022-10-01T11:40:35.139Z,56.90
2022-10-01T11:43:26.647Z,56.63
2022-10-01T11:46:03.833Z,56.93
2022-10-01T11:48:38.276Z,56.94
2022-10-01T11:51:12.546Z,57.67
2022-10-01T11:53:46.072Z,59.48
2022-10-01T11:56:57.639Z,60.85
2022-10-01T11:59:29.507Z,61.93
2022-10-01T12:02:18.436Z,59.25
2022-10-01T12:04:52.556Z,57.83
2022-10-01T12:07:43.157Z,61.94
2022-10-01T12:10:25.712Z,63.09
2022-10-01T12:13:07.441Z,64.26
2022-10-01T12:16:13.023Z,64.73
2022-10-01T12:18:55.651Z,63.88
2022-10-01T12:21:43.584Z,64.71
2022-10-01T12:24:16.312Z,65.65
2022-10-01T12:26:48.829Z,64.65
2022-10-01T12:29:41.816Z,64.92
2022-10-01T12:32:14.924Z,65.37
2022-10-01T12:35:04.304Z,64.95
2022-10-01T12:37:50.078Z,60.12
2022-10-01T12:40:30.935Z,64.15
2022-10-01T12:43:07.299Z,63.14
2022-10-01T12:45:37.530Z,61.07
2022-10-01T12:48:31.236Z,63.47
2022-10-01T12:51:10.444Z,63.43
2022-10-01T12:53:54.590Z,62.72
2022-10-01T12:56:34.425Z,58.62
2022-10-01T12:59:41.723Z,58.87
2022-10-01T13:02:46.442Z,57.32
2022-10-01T13:06:11.096Z,58.58
2022-10-01T13:08:57.733Z,57.82
2022-10-01T13:11:55.969Z,57.05
2022-10-01T13:14:23.736Z,60.04
2022-10-01T13:16:56.667Z,57.86
2022-10-01T13:19:30.350Z,58.05
2022-10-01T13:22:23.091Z,58.72
2022-10-01T13:25:19.005Z,60.20
2022-10-01T13:28:03.675Z,61.85
2022-10-01T13:30:55.244Z,62.21
2022-10-01T13:33:28.371Z,63.00
2022-10-01T13:35:57.961Z,63.13
2022-10-01T13:38:31.098Z,63.58
2022-10-01T13:41:01.416Z,63.84
2022-10-01T13:43:30.642Z,63.61
2022-10-01T13:46:07.043Z,63.62
2022-10-01T13:48:37.143Z,63.84
2022-10-01T13:51:12.687Z,63.82
2022-10-01T13:53:42.943Z,63.87
2022-10-01T13:56:13.100Z,63.80
2022-10-01T13:58:42.856Z,63.96
2022-10-01T14:01:21.349Z,63.95
2022-10-01T14:04:20.116Z,64.00
2022-10-01T14:06:54.331Z,64.03
2022-10-01T14:09:29.550Z,64.03
2022-10-01T14:12:36.425Z,64.17
2022-10-01T14:15:32.604Z,64.11
2022-10-01T14:18:04.549Z,64.32
2022-10-01T14:20:45.620Z,64.38
2022-10-01T14:23:16.101Z,64.25
2022-10-01T14:26:19.052Z,64.34
2022-10-01T14:29:05.773Z,64.41
2022-10-01T14:31:41.398Z,64.38
2022-10-01T14:34:11.615Z,64.50
2022-10-01T14:36:50.973Z,64.57
2022-10-01T14:39:23.656Z,64.49
2022-10-01T14:41:54.104Z,64.54
2022-10-01T14:44:24.118Z,64.54
2022-10-01T14:46:53.822Z,64.39
2022-10-01T14:49:25.948Z,64.64
2022-10-01T14:51:59.850Z,64.58
2022-10-01T14:54:28.954Z,64.71
2022-10-01T14:56:56.682Z,64.66
2022-10-01T14:59:37.500Z,64.60
2022-10-01T15:02:18.414Z,64.82
2022-10-01T15:04:50.980Z,64.79
2022-10-01T15:07:19.137Z,64.68
2022-10-01T15:09:47.478Z,64.56
2022-10-01T15:12:17.269Z,64.68
2022-10-01T15:14:47.001Z,64.54
2022-10-01T15:17:23.399Z,64.58
2022-10-01T15:19:54.214Z,64.50
2022-10-01T15:22:27.027Z,64.44
2022-10-01T15:25:00.873Z,64.47
2022-10-01T15:27:28.385Z,64.58
2022-10-01T15:29:58.696Z,64.40
2022-10-01T15:32:28.124Z,64.40
2022-10-01T15:34:59.837Z,64.40
2022-10-01T15:37:33.917Z,64.30
2022-10-01T15:40:02.562Z,64.30
2022-10-01T15:42:32.989Z,64.24
2022-10-01T15:45:10.233Z,64.15
2022-10-01T15:47:52.212Z,64.22
2022-10-01T15:50:22.128Z,64.33
2022-10-01T15:52:54.845Z,64.09
2022-10-01T15:58:04.177Z,64.17
2022-10-01T16:01:00.676Z,64.13
2022-10-01T16:03:32.923Z,63.96
2022-10-01T16:08:39.390Z,63.91
2022-10-01T16:11:20.766Z,63.82
2022-10-01T16:16:23.499Z,63.76
2022-10-01T16:18:58.623Z,63.74
2022-10-01T16:21:26.469Z,63.46
2022-10-01T16:23:55.950Z,63.68
2022-10-01T16:29:06.422Z,63.46
2022-10-01T16:31:35.900Z,63.47
2022-10-01T16:34:09.427Z,63.61
2022-10-01T16:36:38.411Z,63.52
2022-10-01T16:39:06.625Z,63.44
2022-10-01T16:41:35.098Z,63.43
2022-10-01T16:44:03.493Z,63.49
2022-10-01T16:51:25.241Z,63.39
2022-10-01T16:53:54.519Z,63.34
2022-10-01T16:56:26.912Z,63.24
2022-10-01T16:58:54.679Z,63.22
2022-10-01T17:01:22.053Z,63.14
2022-10-01T17:06:16.249Z,63.08
2022-10-01T17:11:12.743Z,62.92
2022-10-01T17:13:40.281Z,62.91
2022-10-01T17:16:08.720Z,62.92
2022-10-01T17:18:35.962Z,62.85
2022-10-01T17:21:04.753Z,62.77
2022-10-01T17:23:32.034Z,62.74
2022-10-01T17:28:26.360Z,62.68
2022-10-01T17:30:53.689Z,62.32
2022-10-01T17:35:51.954Z,62.66
2022-10-01T17:38:19.876Z,62.68
2022-10-01T17:40:48.046Z,62.75
2022-10-01T17:43:16.993Z,62.57
2022-10-01T17:45:52.474Z,62.43
2022-10-01T17:48:21.836Z,62.58
2022-10-01T17:50:58.575Z,62.68
2022-10-01T17:53:28.523Z,62.76
2022-10-01T17:56:04.785Z,62.64
2022-10-01T17:58:32.062Z,62.46
2022-10-01T18:00:59.411Z,62.64
2022-10-01T18:03:26.844Z,62.44
2022-10-01T18:06:03.119Z,62.57
2022-10-01T18:11:19.078Z,62.49
2022-10-01T18:13:46.433Z,62.43
2022-10-01T18:16:18.822Z,62.38
2022-10-01T18:21:34.060Z,62.37
2022-10-01T18:24:04.552Z,62.48
2022-10-01T18:26:32.891Z,62.45
2022-10-01T18:29:00.819Z,62.36
2022-10-01T18:31:40.687Z,62.36
2022-10-01T18:34:20.703Z,62.34
2022-10-01T18:37:05.217Z,62.28
2022-10-01T18:39:40.868Z,62.25
2022-10-01T18:42:29.860Z,62.23
2022-10-01T18:44:59.484Z,62.31
2022-10-01T18:47:51.079Z,62.44
2022-10-01T18:50:31.432Z,62.23
2022-10-01T18:53:14.530Z,61.71
2022-10-01T18:56:03.778Z,61.49
2022-10-01T18:59:00.726Z,61.55
2022-10-01T19:01:56.214Z,60.86
2022-10-01T19:04:35.382Z,60.83
2022-10-01T19:07:24.204Z,60.71
2022-10-01T19:10:20.935Z,60.17
2022-10-01T19:13:16.610Z,60.66
2022-10-01T19:16:17.729Z,60.72
2022-10-01T19:19:12.933Z,60.00
2022-10-01T19:21:51.221Z,59.89
2022-10-01T19:24:44.797Z,59.45
2022-10-01T19:27:13.649Z,59.45
2022-10-01T19:30:15.434Z,58.83
2022-10-01T19:32:49.917Z,58.36
2022-10-01T19:35:20.593Z,58.18
2022-10-01T19:37:55.181Z,57.88
2022-10-01T19:40:49.228Z,57.88
2022-10-01T19:43:22.733Z,57.51
2022-10-01T19:46:00.863Z,56.97
2022-10-01T19:48:44.129Z,56.26
2022-10-01T19:51:12.974Z,56.04
2022-10-01T19:53:48.311Z,55.46
2022-10-01T19:56:20.506Z,55.41
2022-10-01T19:58:47.712Z,55.31
2022-10-01T20:01:20.573Z,55.05
2022-10-01T20:03:57.434Z,54.06
2022-10-01T20:06:27.550Z,53.72
2022-10-01T20:08:59.406Z,55.85
2022-10-01T20:11:42.307Z,57.79
2022-10-01T20:14:59.204Z,58.11
2022-10-01T20:17:42.406Z,57.83
2022-10-01T20:20:16.772Z,58.61
2022-10-01T20:23:24.008Z,58.50
2022-10-01T20:26:29.052Z,58.27
2022-10-01T20:29:20.676Z,58.58
2022-10-01T20:32:01.727Z,58.66
2022-10-01T20:35:02.921Z,58.75
2022-10-01T20:37:54.606Z,58.91
2022-10-01T20:40:28.667Z,58.76
2022-10-01T20:43:09.361Z,58.79
2022-10-01T20:45:39.389Z,58.93
2022-10-01T20:48:29.802Z,58.73
2022-10-01T20:51:27.226Z,58.75
2022-10-01T20:53:56.792Z,58.71
2022-10-01T20:56:33.310Z,58.72
2022-10-01T20:59:27.376Z,58.81
2022-10-01T21:02:04.522Z,58.85
2022-10-01T21:04:41.181Z,58.90
2022-10-01T21:07:26.902Z,58.55
2022-10-01T21:09:58.443Z,58.54
2022-10-01T21:12:38.018Z,59.05
2022-10-01T21:15:11.743Z,58.87
2022-10-01T21:17:53.475Z,59.17
2022-10-01T21:20:34.227Z,58.74
2022-10-01T21:23:10.606Z,58.74
2022-10-01T21:25:53.991Z,58.55
2022-10-01T21:28:45.598Z,58.38
2022-10-01T21:31:40.356Z,58.23
2022-10-01T21:34:34.039Z,57.90
2022-10-01T21:37:10.140Z,57.67
2022-10-01T21:39:53.537Z,57.78
2022-10-01T21:42:45.069Z,57.71
2022-10-01T21:45:43.357Z,57.34
2022-10-01T21:48:22.356Z,57.37
2022-10-01T21:51:14.919Z,57.82
2022-10-01T21:54:02.711Z,57.34
2022-10-01T21:56:38.913Z,57.20
2022-10-01T21:59:20.452Z,57.15
2022-10-01T22:02:03.428Z,57.06
2022-10-01T22:04:36.671Z,57.13
2022-10-01T22:07:15.989Z,56.97
2022-10-01T22:10:34.763Z,57.54
2022-10-01T22:13:06.566Z,57.07
2022-10-01T22:15:40.038Z,57.03
2022-10-01T22:18:15.060Z,57.05
2022-10-01T22:20:45.046Z,56.86
2022-10-01T22:23:17.617Z,56.84
2022-10-01T22:25:58.611Z,56.88
2022-10-01T22:28:34.147Z,57.70
2022-10-01T22:31:04.540Z,56.94
2022-10-01T22:33:45.679Z,57.21
2022-10-01T22:36:31.571Z,57.04
2022-10-01T22:39:12.544Z,56.93
2022-10-01T22:41:47.125Z,56.80
2022-10-01T22:44:20.032Z,56.87
2022-10-01T22:46:47.319Z,56.68
2022-10-01T22:49:27.630Z,56.82
2022-10-01T22:52:31.626Z,56.87
2022-10-01T22:55:12.312Z,56.87
2022-10-01T22:57:51.590Z,56.99
2022-10-01T23:00:21.280Z,56.91
2022-10-01T23:03:19.242Z,56.85
2022-10-01T23:06:17.985Z,56.79
2022-10-01T23:09:05.168Z,56.95
2022-10-01T23:11:45.702Z,56.88
2022-10-01T23:14:34.023Z,56.90
2022-10-01T23:17:10.873Z,57.02
2022-10-01T23:19:59.497Z,56.96
2022-10-01T23:22:26.633Z,57.00
2022-10-01T23:25:15.177Z,57.04
2022-10-01T23:27:51.202Z,56.92
2022-10-01T23:30:20.278Z,57.04
2022-10-01T23:32:54.759Z,56.99
2022-10-01T23:35:40.246Z,56.96
2022-10-01T23:38:24.374Z,57.01
2022-10-01T23:40:52.279Z,56.96
2022-10-01T23:43:29.043Z,56.82
2022-10-01T23:46:02.687Z,56.96
2022-10-01T23:48:53.178Z,56.74
2022-10-01T23:51:46.764Z,56.81
2022-10-01T23:54:26.860Z,56.75
2022-10-01T23:56:58.681Z,56.82
2022-10-01T23:59:32.256Z,56.77
